Time;durP1;ratioP1;P1;durP2;ratioP2;P2;SDS_P1;SDS_P2;PMS_P1;PMS_P2;Temp;Humidity;BMP_temperature;BMP_pressure;BME280_temperature;BME280_humidity;BME280_pressure;Samples;Min_cycle;Max_cycle;Signal;HPM_P1;HPM_P2
2022/07/22 00:02:22;;;;;;;9.13;2.30;;;17.10;99.90;;;;;;5078066;28;20287;-61
2022/07/22 00:04:48;;;;;;;8.52;2.20;;;17.10;99.90;;;;;;5076733;28;20043;-60
2022/07/22 00:07:15;;;;;;;8.50;2.35;;;17.10;99.90;;;;;;5077374;28;20025;-61
2022/07/22 00:09:41;;;;;;;7.05;2.03;;;17.00;99.90;;;;;;5077221;28;20032;-61
2022/07/22 00:12:07;;;;;;;6.57;2.20;;;17.00;99.90;;;;;;5077251;28;20032;-61
2022/07/22 00:14:33;;;;;;;10.02;1.88;;;17.00;99.90;;;;;;5077247;28;20033;-61
2022/07/22 00:16:59;;;;;;;9.50;2.45;;;17.00;99.90;;;;;;5077257;28;20327;-61
2022/07/22 00:19:25;;;;;;;5.95;2.45;;;17.00;99.90;;;;;;5077237;28;20025;-61
2022/07/22 00:21:52;;;;;;;8.20;2.45;;;17.00;99.90;;;;;;5076358;28;20032;-61
2022/07/22 00:24:18;;;;;;;11.10;2.40;;;17.10;99.90;;;;;;5077025;28;20300;-61
2022/07/22 00:26:44;;;;;;;8.63;2.20;;;17.00;99.90;;;;;;5076380;28;20368;-61
2022/07/22 00:29:10;;;;;;;7.75;2.30;;;17.00;99.90;;;;;;5077070;28;20056;-61
2022/07/22 00:31:36;;;;;;;7.13;2.45;;;17.00;99.90;;;;;;5077200;28;20147;-61
2022/07/22 00:34:02;;;;;;;13.27;2.97;;;16.90;99.90;;;;;;5077287;28;20028;-60
2022/07/22 00:36:29;;;;;;;8.40;2.58;;;17.00;99.90;;;;;;5059881;28;20056;-61
2022/07/22 00:38:55;;;;;;;6.20;2.38;;;16.90;99.90;;;;;;5076171;28;20098;-62
2022/07/22 00:41:21;;;;;;;10.40;2.60;;;16.90;99.90;;;;;;5077151;28;20024;-62
2022/07/22 00:44:03;;;;;;;6.97;2.10;;;16.90;99.90;;;;;;5076955;28;20044;-62
2022/07/22 00:46:30;;;;;;;7.37;2.30;;;16.90;99.90;;;;;;5076988;28;20461;-62
2022/07/22 00:48:57;;;;;;;8.88;2.38;;;16.80;99.90;;;;;;5076806;28;20296;-62
2022/07/22 00:51:24;;;;;;;7.72;2.67;;;16.90;99.90;;;;;;5076733;28;20365;-62
2022/07/22 00:53:50;;;;;;;7.15;2.20;;;16.80;99.90;;;;;;5076046;28;20033;-62
2022/07/22 00:56:17;;;;;;;7.68;2.55;;;16.80;99.90;;;;;;5075914;28;20341;-61
2022/07/22 00:58:47;;;;;;;6.25;2.40;;;16.80;99.90;;;;;;5077140;28;20182;-62
2022/07/22 01:01:13;;;;;;;8.77;2.47;;;16.80;99.90;;;;;;5076707;28;20130;-61
2022/07/22 01:03:39;;;;;;;8.95;2.28;;;16.80;99.90;;;;;;5076676;28;20040;-62
2022/07/22 01:06:05;;;;;;;11.38;2.47;;;16.70;99.90;;;;;;5076698;28;20029;-61
2022/07/22 01:08:33;;;;;;;6.78;2.15;;;16.70;99.90;;;;;;5059238;28;20037;-61
2022/07/22 01:11:10;;;;;;;7.50;2.30;;;16.70;99.90;;;;;;5076562;28;20288;-61
2022/07/22 01:13:36;;;;;;;8.95;2.38;;;16.70;99.90;;;;;;5076615;28;20052;-59
2022/07/22 01:16:03;;;;;;;7.68;2.30;;;16.70;99.90;;;;;;5076618;28;20029;-61
2022/07/22 01:18:29;;;;;;;9.70;2.95;;;16.70;99.90;;;;;;5076591;28;20098;-62
2022/07/22 01:20:55;;;;;;;7.53;3.15;;;16.60;99.90;;;;;;5076558;28;20118;-61
2022/07/22 01:23:22;;;;;;;9.20;2.58;;;16.60;99.90;;;;;;5076533;28;20109;-62
2022/07/22 01:25:48;;;;;;;10.07;2.95;;;16.60;99.90;;;;;;5076862;28;20350;-62
2022/07/22 01:28:14;;;;;;;8.70;2.40;;;16.60;99.90;;;;;;5075797;28;20032;-63
2022/07/22 01:30:39;;;;;;;10.98;2.63;;;16.60;99.90;;;;;;5076433;28;20064;-61
2022/07/22 01:33:05;;;;;;;10.23;3.05;;;16.60;99.90;;;;;;5075721;28;20044;-60
2022/07/22 01:35:31;;;;;;;11.65;2.70;;;16.60;99.90;;;;;;5076399;28;20412;-60
2022/07/22 01:37:57;;;;;;;9.07;2.85;;;16.60;99.90;;;;;;5076356;28;20032;-61
2022/07/22 01:40:23;;;;;;;8.07;2.30;;;16.60;99.90;;;;;;5077757;28;20051;-61
2022/07/22 01:42:49;;;;;;;7.40;2.53;;;16.60;99.90;;;;;;5079297;28;20029;-60
2022/07/22 01:45:15;;;;;;;9.10;2.58;;;16.50;99.90;;;;;;5080554;28;20032;-61
2022/07/22 01:47:43;;;;;;;8.75;2.50;;;16.50;99.90;;;;;;5080080;28;20045;-61
2022/07/22 01:50:11;;;;;;;8.23;2.67;;;16.40;99.90;;;;;;5080104;28;20269;-61
2022/07/22 01:52:38;;;;;;;10.98;2.92;;;16.40;99.90;;;;;;5080031;28;20179;-62
2022/07/22 01:55:06;;;;;;;11.25;2.80;;;16.40;99.90;;;;;;5079781;28;20028;-61
2022/07/22 01:57:32;;;;;;;6.82;2.78;;;16.40;99.90;;;;;;5078868;28;20060;-62
2022/07/22 01:59:59;;;;;;;11.25;3.00;;;16.40;99.90;;;;;;5078951;28;20094;-61
2022/07/22 02:02:25;;;;;;;10.45;2.78;;;16.40;99.90;;;;;;5078958;28;20032;-62
2022/07/22 02:04:52;;;;;;;6.40;2.63;;;16.30;99.90;;;;;;5078872;28;20037;-63
2022/07/22 02:07:18;;;;;;;8.80;3.28;;;16.40;99.90;;;;;;5062276;28;20047;-61
2022/07/22 02:09:44;;;;;;;8.80;3.03;;;16.40;99.90;;;;;;5078750;28;20029;-61
2022/07/22 02:12:12;;;;;;;10.05;2.80;;;16.30;99.90;;;;;;5078741;28;20036;-61
2022/07/22 02:14:44;;;;;;;10.90;3.20;;;16.30;99.90;;;;;;5078775;28;20320;-61
2022/07/22 02:17:10;;;;;;;13.30;3.08;;;16.30;99.90;;;;;;5062098;28;20028;-62
2022/07/22 02:19:37;;;;;;;11.15;2.78;;;16.30;99.90;;;;;;5062277;28;20060;-62
2022/07/22 02:22:04;;;;;;;9.80;2.78;;;16.30;99.90;;;;;;5078536;28;20060;-62
2022/07/22 02:24:30;;;;;;;9.57;2.75;;;16.30;99.90;;;;;;5079317;28;20086;-61
2022/07/22 02:26:56;;;;;;;10.52;2.78;;;16.20;99.90;;;;;;5079243;28;20032;-61
2022/07/22 02:29:22;;;;;;;12.20;2.90;;;16.10;99.90;;;;;;5079172;28;20032;-62
2022/07/22 02:31:48;;;;;;;9.80;2.92;;;16.10;99.90;;;;;;5062082;28;20021;-62
2022/07/22 02:34:13;;;;;;;6.93;2.50;;;16.00;99.90;;;;;;5078496;28;20036;-65
2022/07/22 02:36:39;;;;;;;7.32;2.83;;;15.90;99.90;;;;;;5078267;28;20041;-61
2022/07/22 02:39:05;;;;;;;6.22;2.30;;;15.90;99.90;;;;;;5079340;28;20044;-62
2022/07/22 02:41:31;;;;;;;5.65;2.88;;;15.80;99.90;;;;;;5078247;28;20047;-62
2022/07/22 02:43:57;;;;;;;7.38;2.85;;;15.80;99.90;;;;;;5079260;28;20037;-62
2022/07/22 02:46:24;;;;;;;8.13;3.28;;;15.80;99.90;;;;;;5061544;28;20091;-62
2022/07/22 02:48:50;;;;;;;6.82;2.67;;;15.80;99.90;;;;;;5078318;28;20055;-62
2022/07/22 02:51:18;;;;;;;10.48;3.30;;;15.80;99.90;;;;;;5077987;28;20300;-61
2022/07/22 02:53:44;;;;;;;8.48;3.03;;;15.80;99.90;;;;;;5045023;28;20309;-62
2022/07/22 02:56:10;;;;;;;7.93;2.88;;;15.90;99.90;;;;;;5078888;28;20049;-61
2022/07/22 02:58:36;;;;;;;7.88;3.33;;;15.90;99.90;;;;;;5044790;28;20044;-62
2022/07/22 03:01:01;;;;;;;9.70;3.05;;;16.00;99.90;;;;;;5077804;28;20033;-61
2022/07/22 03:03:31;;;;;;;10.88;2.85;;;15.90;99.90;;;;;;5077955;28;20029;-62
2022/07/22 03:05:57;;;;;;;7.28;3.13;;;15.80;99.90;;;;;;5061198;28;20028;-61
2022/07/22 03:08:30;;;;;;;9.23;2.97;;;15.70;99.90;;;;;;5062238;28;20036;-61
2022/07/22 03:10:57;;;;;;;7.88;2.80;;;15.70;99.90;;;;;;5077506;28;20025;-61
2022/07/22 03:13:23;;;;;;;10.38;3.25;;;15.80;99.90;;;;;;5078306;28;20115;-59
2022/07/22 03:15:49;;;;;;;11.13;3.45;;;15.90;99.90;;;;;;5077505;28;20355;-61
2022/07/22 03:18:14;;;;;;;6.15;3.05;;;15.90;99.90;;;;;;5078181;28;20028;-61
2022/07/22 03:20:41;;;;;;;7.57;3.05;;;15.80;99.90;;;;;;5077378;28;20047;-59
2022/07/22 03:23:06;;;;;;;10.07;3.03;;;15.80;99.90;;;;;;5078424;28;20308;-60
2022/07/22 03:25:33;;;;;;;7.13;2.97;;;15.60;99.90;;;;;;5060720;28;20028;-60
2022/07/22 03:28:00;;;;;;;9.02;3.40;;;15.60;99.90;;;;;;5077246;28;20308;-60
2022/07/22 03:30:26;;;;;;;8.85;3.08;;;15.60;99.90;;;;;;5077309;28;20041;-60
2022/07/22 03:32:52;;;;;;;8.38;2.95;;;15.70;99.90;;;;;;5078268;28;20435;-60
2022/07/22 03:35:19;;;;;;;5.00;3.13;;;15.70;99.90;;;;;;5077414;28;20028;-60
2022/07/22 03:37:47;;;;;;;7.03;3.25;;;15.60;99.90;;;;;;5077147;28;20055;-60
2022/07/22 03:40:14;;;;;;;7.15;3.33;;;15.50;99.90;;;;;;5077049;28;20033;-60
2022/07/22 03:42:41;;;;;;;9.15;3.35;;;15.60;99.90;;;;;;5077030;28;20055;-61
2022/07/22 03:45:08;;;;;;;6.22;3.25;;;15.60;99.90;;;;;;5076934;28;20040;-60
2022/07/22 03:47:38;;;;;;;5.55;3.25;;;15.50;99.90;;;;;;5076993;28;20425;-61
2022/07/22 03:50:05;;;;;;;9.73;3.05;;;15.40;99.90;;;;;;5076777;28;20024;-61
2022/07/22 03:52:31;;;;;;;6.47;2.80;;;15.20;99.90;;;;;;5077615;28;20028;-60
2022/07/22 03:55:00;;;;;;;6.80;3.25;;;15.20;99.90;;;;;;5076755;28;20355;-61
2022/07/22 03:57:27;;;;;;;10.10;3.75;;;15.20;99.90;;;;;;5059974;28;20052;-60
2022/07/22 04:00:01;;;;;;;6.78;3.38;;;15.40;99.90;;;;;;5076746;28;20407;-60
2022/07/22 04:02:28;;;;;;;7.78;3.38;;;15.40;99.90;;;;;;5076515;28;20127;-60
2022/07/22 04:04:54;;;;;;;10.07;3.08;;;15.30;99.90;;;;;;5077146;28;20112;-61
2022/07/22 04:07:20;;;;;;;6.45;3.25;;;15.20;99.90;;;;;;5076474;28;20066;-61
2022/07/22 04:09:45;;;;;;;10.82;3.80;;;15.30;99.90;;;;;;5077247;28;20043;-60
2022/07/22 04:12:13;;;;;;;10.38;3.15;;;15.40;99.90;;;;;;5076344;28;20028;-61
2022/07/22 04:14:58;;;;;;;8.75;3.67;;;15.40;99.90;;;;;;5076488;28;20054;-61
2022/07/22 04:17:24;;;;;;;10.38;3.90;;;15.40;99.90;;;;;;5077189;28;20510;-61
2022/07/22 04:19:50;;;;;;;7.22;3.40;;;15.40;99.90;;;;;;5076373;28;20072;-61
2022/07/22 04:22:24;;;;;;;7.88;4.32;;;15.40;99.90;;;;;;5061059;28;20067;-61
2022/07/22 04:24:50;;;;;;;11.20;4.53;;;15.40;99.90;;;;;;5076395;28;20312;-61
2022/07/22 04:27:16;;;;;;;8.98;4.18;;;15.40;99.90;;;;;;5076327;28;20127;-61
2022/07/22 04:29:42;;;;;;;11.30;4.40;;;15.40;99.90;;;;;;5059544;28;20078;-61
2022/07/22 04:32:08;;;;;;;8.32;3.83;;;15.40;99.90;;;;;;5076306;28;20032;-62
2022/07/22 04:34:35;;;;;;;9.95;3.83;;;15.50;99.90;;;;;;5076177;28;20116;-62
2022/07/22 04:37:02;;;;;;;7.95;3.90;;;15.60;99.90;;;;;;5059719;28;20036;-61
2022/07/22 04:39:32;;;;;;;6.40;3.70;;;15.70;99.90;;;;;;5060279;28;20029;-62
2022/07/22 04:41:58;;;;;;;6.15;3.38;;;15.60;99.90;;;;;;5076202;28;20029;-61
2022/07/22 04:44:25;;;;;;;9.00;3.53;;;15.60;99.90;;;;;;5076082;28;20321;-61
2022/07/22 04:46:51;;;;;;;9.85;4.20;;;15.70;99.90;;;;;;5076912;28;20036;-61
2022/07/22 04:49:17;;;;;;;8.32;3.60;;;15.70;99.90;;;;;;5076027;28;20061;-61
2022/07/22 04:51:43;;;;;;;11.23;4.20;;;15.70;99.90;;;;;;5076024;28;20396;-61
2022/07/22 04:54:13;;;;;;;8.93;3.95;;;15.70;99.90;;;;;;5076127;28;20044;-61
2022/07/22 04:56:42;;;;;;;6.85;3.75;;;15.80;99.90;;;;;;5075765;28;20045;-61
2022/07/22 04:59:08;;;;;;;9.32;3.78;;;15.80;99.90;;;;;;5059304;28;20028;-61
2022/07/22 05:01:35;;;;;;;7.00;3.70;;;15.90;99.90;;;;;;5076757;28;20058;-61
2022/07/22 05:04:02;;;;;;;7.50;3.45;;;15.90;99.90;;;;;;5059338;28;20419;-61
2022/07/22 05:06:28;;;;;;;7.88;4.22;;;16.00;99.90;;;;;;5075939;28;20036;-62
2022/07/22 05:08:54;;;;;;;7.75;3.83;;;16.10;99.90;;;;;;5075839;28;20033;-63
2022/07/22 05:11:20;;;;;;;8.70;3.88;;;16.20;99.90;;;;;;5075783;28;20040;-61
2022/07/22 05:13:47;;;;;;;9.50;3.80;;;16.10;99.90;;;;;;5075808;28;20308;-62
2022/07/22 05:16:13;;;;;;;7.93;3.83;;;16.20;99.90;;;;;;5079512;28;20404;-62
2022/07/22 05:18:39;;;;;;;14.85;4.20;;;16.20;99.90;;;;;;5079839;28;20052;-61
2022/07/22 05:21:07;;;;;;;9.88;3.97;;;16.30;99.90;;;;;;5079790;28;20296;-61
2022/07/22 05:23:34;;;;;;;11.98;4.22;;;16.40;99.90;;;;;;5046647;28;20033;-61
2022/07/22 05:26:00;;;;;;;10.73;4.18;;;16.50;99.90;;;;;;5079743;28;20052;-62
2022/07/22 05:28:26;;;;;;;9.63;3.90;;;16.50;99.90;;;;;;5079528;28;20032;-62
2022/07/22 05:30:52;;;;;;;9.35;3.80;;;16.60;99.90;;;;;;5079512;28;20110;-61
2022/07/22 05:33:18;;;;;;;9.50;3.60;;;16.70;99.90;;;;;;5079409;28;20044;-61
2022/07/22 05:35:56;;;;;;;11.23;4.07;;;16.70;99.90;;;;;;5081264;28;20361;-60
2022/07/22 05:38:23;;;;;;;10.85;3.95;;;16.70;99.90;;;;;;5079296;28;20274;-61
2022/07/22 05:40:49;;;;;;;9.07;3.70;;;16.90;99.90;;;;;;5079365;28;20062;-60
2022/07/22 05:43:15;;;;;;;7.80;3.60;;;16.90;99.90;;;;;;5079287;28;20037;-60
2022/07/22 05:45:41;;;;;;;7.15;3.10;;;17.00;99.90;;;;;;5080014;28;20029;-60
2022/07/22 05:48:07;;;;;;;5.63;3.00;;;17.00;99.90;;;;;;5079282;28;20048;-60
2022/07/22 05:50:34;;;;;;;5.57;2.53;;;17.10;99.90;;;;;;5079076;28;20036;-60
2022/07/22 05:53:00;;;;;;;7.13;2.88;;;17.30;99.90;;;;;;5079871;28;20067;-60
2022/07/22 05:55:26;;;;;;;7.20;2.88;;;17.40;99.90;;;;;;5079889;28;20044;-60
2022/07/22 05:57:52;;;;;;;6.20;2.60;;;17.50;99.90;;;;;;5079338;28;20041;-60
2022/07/22 06:00:18;;;;;;;7.25;2.72;;;17.50;99.90;;;;;;5079769;28;20039;-60
2022/07/22 06:02:44;;;;;;;6.30;2.58;;;17.60;99.90;;;;;;5062446;28;20123;-61
2022/07/22 06:05:16;;;;;;;5.68;2.38;;;17.70;99.90;;;;;;5078937;28;20028;-60
2022/07/22 06:07:42;;;;;;;6.50;2.53;;;17.80;99.90;;;;;;5079196;28;20043;-60
2022/07/22 06:10:10;;;;;;;5.65;2.50;;;17.90;99.90;;;;;;5078711;28;20135;-60
2022/07/22 06:12:36;;;;;;;6.28;2.50;;;18.00;99.90;;;;;;5062223;28;20041;-60
2022/07/22 06:15:04;;;;;;;6.72;2.53;;;18.10;99.90;;;;;;5078706;28;20025;-60
2022/07/22 06:17:30;;;;;;;5.45;2.38;;;18.30;99.90;;;;;;5078710;28;20400;-61
2022/07/22 06:19:56;;;;;;;3.83;1.92;;;18.20;99.90;;;;;;5062008;28;20087;-60
2022/07/22 06:22:22;;;;;;;7.18;1.73;;;18.20;99.90;;;;;;5079235;28;20392;-61
2022/07/22 06:24:48;;;;;;;7.03;1.73;;;18.30;99.90;;;;;;5045262;28;20028;-62
2022/07/22 06:27:15;;;;;;;4.07;1.63;;;18.40;99.90;;;;;;5078493;28;20055;-62
2022/07/22 06:29:41;;;;;;;2.70;1.50;;;18.30;99.90;;;;;;5078405;28;20040;-62
2022/07/22 06:32:08;;;;;;;3.63;1.75;;;18.30;99.90;;;;;;5061898;28;20320;-62
2022/07/22 06:34:34;;;;;;;6.38;1.80;;;18.50;99.90;;;;;;5078813;28;20047;-61
2022/07/22 06:37:03;;;;;;;5.88;1.80;;;18.50;99.90;;;;;;5062328;28;20118;-61
2022/07/22 06:39:29;;;;;;;5.03;1.55;;;18.60;99.90;;;;;;5079042;28;20025;-62
2022/07/22 06:42:22;;;;;;;4.10;1.40;;;18.70;99.90;;;;;;5078703;28;20064;-62
2022/07/22 06:45:08;;;;;;;3.40;1.33;;;18.90;99.90;;;;;;5078044;28;20122;-62
2022/07/22 06:47:55;;;;;;;5.07;1.63;;;19.20;99.90;;;;;;5079164;28;20041;-62
2022/07/22 06:50:20;;;;;;;5.18;1.33;;;19.10;99.90;;;;;;5078769;28;20037;-61
2022/07/22 06:52:48;;;;;;;3.70;1.27;;;19.30;99.90;;;;;;5078832;28;20078;-59
2022/07/22 06:55:15;;;;;;;5.00;1.40;;;19.40;99.90;;;;;;5077980;28;20066;-60
2022/07/22 06:57:47;;;;;;;6.30;1.50;;;19.50;99.90;;;;;;5077861;28;20044;-59
2022/07/22 07:00:14;;;;;;;4.38;1.42;;;19.40;99.90;;;;;;5077785;28;20043;-60
2022/07/22 07:02:59;;;;;;;6.32;1.65;;;19.30;99.90;;;;;;5078906;28;20046;-61
2022/07/22 07:05:27;;;;;;;8.63;1.77;;;19.30;99.90;;;;;;5077855;28;20136;-61
2022/07/22 07:07:53;;;;;;;3.53;1.45;;;19.40;99.90;;;;;;5077897;28;20399;-61
2022/07/22 07:10:19;;;;;;;8.65;1.55;;;19.60;99.90;;;;;;5078391;28;20064;-62
2022/07/22 07:12:57;;;;;;;3.80;1.30;;;19.80;99.90;;;;;;5078036;28;20028;-60
2022/07/22 07:15:27;;;;;;;6.15;1.23;;;19.80;99.90;;;;;;5078426;28;20043;-61
2022/07/22 07:17:58;;;;;;;5.82;1.50;;;20.00;99.90;;;;;;5078425;28;20044;-61
2022/07/22 07:20:25;;;;;;;4.10;1.20;;;20.10;99.90;;;;;;5078222;28;20040;-61
2022/07/22 07:22:51;;;;;;;6.20;1.35;;;20.00;99.90;;;;;;5077378;28;20115;-60
2022/07/22 07:25:17;;;;;;;6.05;1.55;;;20.00;99.90;;;;;;5077382;28;20131;-60
2022/07/22 07:27:43;;;;;;;3.88;1.25;;;20.10;99.90;;;;;;5077292;28;20119;-60
2022/07/22 07:30:12;;;;;;;3.67;1.17;;;20.20;99.90;;;;;;5077122;28;20403;-60
2022/07/22 07:32:38;;;;;;;5.85;1.23;;;20.00;99.90;;;;;;5077236;28;20403;-60
2022/07/22 07:35:06;;;;;;;7.00;1.30;;;19.90;99.90;;;;;;5077163;28;20053;-61
2022/07/22 07:37:32;;;;;;;5.95;1.25;;;19.90;99.90;;;;;;5076504;28;20052;-61
2022/07/22 07:39:59;;;;;;;6.30;1.40;;;20.10;99.90;;;;;;5077043;28;20028;-61
2022/07/22 07:42:25;;;;;;;4.80;1.08;;;20.50;99.90;;;;;;5077041;28;20085;-62
2022/07/22 07:44:51;;;;;;;4.05;1.30;;;20.50;99.90;;;;;;5077029;28;20289;-61
2022/07/22 07:47:20;;;;;;;3.78;1.00;;;20.80;99.90;;;;;;5076903;28;20028;-59
2022/07/22 07:49:48;;;;;;;6.32;1.20;;;20.70;99.90;;;;;;5076840;28;20123;-61
2022/07/22 07:52:15;;;;;;;4.07;0.93;;;20.80;99.90;;;;;;5076887;28;20354;-61
2022/07/22 07:54:41;;;;;;;3.25;0.98;;;20.80;99.90;;;;;;5076741;28;20052;-62
2022/07/22 07:57:08;;;;;;;3.25;1.08;;;20.80;99.90;;;;;;5076622;28;20049;-61
2022/07/22 07:59:34;;;;;;;7.38;1.25;;;21.30;99.90;;;;;;5060302;28;20448;-62
2022/07/22 08:02:02;;;;;;;3.58;1.10;;;21.20;99.90;;;;;;5076666;28;20285;-61
2022/07/22 08:04:29;;;;;;;3.78;1.15;;;21.30;99.90;;;;;;5076589;28;20032;-61
2022/07/22 08:06:56;;;;;;;6.25;1.50;;;21.50;99.90;;;;;;5076592;28;20020;-60
2022/07/22 08:09:22;;;;;;;3.97;1.23;;;21.90;99.90;;;;;;5077336;28;20389;-60
2022/07/22 08:11:49;;;;;;;4.35;1.38;;;22.00;99.90;;;;;;5076437;28;20115;-60
2022/07/22 08:14:33;;;;;;;6.72;1.80;;;21.60;99.90;;;;;;5076585;28;20115;-61
2022/07/22 08:17:05;;;;;;;3.67;1.40;;;21.50;99.90;;;;;;5077304;28;20039;-60
2022/07/22 08:19:31;;;;;;;5.07;1.63;;;21.20;99.90;;;;;;5076395;28;20028;-61
2022/07/22 08:21:58;;;;;;;3.95;1.55;;;21.50;99.90;;;;;;5059771;28;20060;-61
2022/07/22 08:24:29;;;;;;;2.78;1.60;;;21.70;99.90;;;;;;5077474;28;20136;-60
2022/07/22 08:26:58;;;;;;;3.40;1.38;;;21.70;99.90;;;;;;5076251;28;20020;-61
2022/07/22 08:29:24;;;;;;;3.92;1.55;;;21.70;99.90;;;;;;5076510;28;20081;-61
2022/07/22 08:31:50;;;;;;;5.88;1.60;;;21.80;99.90;;;;;;5076797;28;20036;-60
2022/07/22 08:34:19;;;;;;;5.05;1.80;;;21.90;99.90;;;;;;5076181;28;20033;-61
2022/07/22 08:36:45;;;;;;;5.13;1.60;;;22.00;99.90;;;;;;5076166;28;20170;-60
2022/07/22 08:39:11;;;;;;;6.05;1.80;;;21.50;99.90;;;;;;5076040;28;20025;-59
2022/07/22 08:41:38;;;;;;;6.05;1.85;;;21.70;99.90;;;;;;5076158;28;20289;-60
2022/07/22 08:44:06;;;;;;;3.38;1.80;;;21.80;99.90;;;;;;5076053;28;20038;-61
2022/07/22 08:46:32;;;;;;;3.38;1.65;;;22.00;99.90;;;;;;5076853;28;20028;-61
2022/07/22 08:49:33;;;;;;;4.78;1.63;;;21.90;99.90;;;;;;5076073;28;20029;-61
2022/07/22 08:52:22;;;;;;;4.38;1.50;;;22.10;99.90;;;;;;5077396;28;20033;-61
2022/07/22 08:54:49;;;;;;;3.33;1.77;;;22.40;99.90;;;;;;5075954;28;20047;-60
2022/07/22 08:57:18;;;;;;;4.40;1.90;;;22.40;99.90;;;;;;5075871;28;20055;-60
2022/07/22 08:59:56;;;;;;;4.45;2.00;;;22.20;99.90;;;;;;5075906;28;20036;-60
2022/07/22 09:02:23;;;;;;;4.32;1.95;;;22.60;99.90;;;;;;5075997;28;20052;-60
2022/07/22 09:05:00;;;;;;;4.18;2.17;;;22.80;99.90;;;;;;5075888;28;20113;-60
2022/07/22 09:07:32;;;;;;;4.32;2.13;;;22.70;99.90;;;;;;5075970;28;20016;-60
2022/07/22 09:10:11;;;;;;;4.57;2.05;;;22.40;99.90;;;;;;5075781;28;20032;-60
2022/07/22 09:12:59;;;;;;;4.22;2.40;;;22.20;99.90;;;;;;5076408;28;20359;-61
2022/07/22 09:15:54;;;;;;;4.93;2.60;;;22.30;99.90;;;;;;5076705;28;20070;-62
2022/07/22 09:18:52;;;;;;;4.72;2.13;;;22.80;99.90;;;;;;5076108;28;20040;-60
2022/07/22 09:21:43;;;;;;;5.72;2.30;;;22.60;99.90;;;;;;5076895;28;20105;-60
2022/07/22 09:24:34;;;;;;;3.75;2.00;;;23.10;99.90;;;;;;5075693;28;20032;-61
2022/07/22 09:27:35;;;;;;;6.65;2.53;;;23.30;99.90;;;;;;5083141;28;20056;-61
2022/07/22 09:30:30;;;;;;;5.25;2.20;;;23.40;99.90;;;;;;5075878;28;20045;-61
2022/07/22 09:33:08;;;;;;;4.72;2.35;;;23.50;99.90;;;;;;5060821;28;20043;-60
2022/07/22 09:35:39;;;;;;;3.53;2.33;;;23.30;99.90;;;;;;5076456;28;20058;-61
2022/07/22 09:38:11;;;;;;;5.05;2.60;;;23.10;99.90;;;;;;5059161;28;20028;-61
2022/07/22 09:40:41;;;;;;;6.15;2.63;;;23.30;99.90;;;;;;5075702;28;20296;-61
2022/07/22 09:43:13;;;;;;;3.60;2.10;;;23.40;99.90;;;;;;5076609;28;20055;-60
2022/07/22 09:45:57;;;;;;;4.55;2.33;;;23.30;99.90;;;;;;5059043;28;20028;-60
2022/07/22 09:48:41;;;;;;;5.88;2.35;;;23.20;99.90;;;;;;5075335;28;20036;-60
2022/07/22 09:51:25;;;;;;;7.15;2.38;;;22.90;99.90;;;;;;5076238;28;20054;-61
2022/07/22 09:54:16;;;;;;;3.92;2.00;;;23.10;99.90;;;;;;5076215;28;20082;-61
2022/07/22 09:56:42;;;;;;;3.78;2.20;;;23.10;99.90;;;;;;5058598;28;20036;-61
2022/07/22 09:59:08;;;;;;;5.88;2.35;;;23.00;99.90;;;;;;5075440;28;20039;-60
2022/07/22 10:01:38;;;;;;;5.40;2.40;;;22.90;99.90;;;;;;5077839;28;20035;-60
2022/07/22 10:04:07;;;;;;;4.95;2.35;;;22.70;99.90;;;;;;5062520;28;20051;-60
2022/07/22 10:06:37;;;;;;;6.60;2.97;;;23.10;99.90;;;;;;5062362;28;20063;-61
2022/07/22 10:09:05;;;;;;;5.30;3.80;;;23.30;99.90;;;;;;5079308;28;20048;-62
2022/07/22 10:11:32;;;;;;;6.72;3.17;;;23.70;99.90;;;;;;5079544;28;20090;-60
2022/07/22 10:13:58;;;;;;;4.35;3.22;;;23.40;99.90;;;;;;5062057;28;20028;-61
2022/07/22 10:16:24;;;;;;;5.68;3.13;;;23.30;99.90;;;;;;5079559;28;20067;-59
2022/07/22 10:18:50;;;;;;;5.28;3.08;;;23.30;99.90;;;;;;5078639;28;20079;-61
2022/07/22 10:21:30;;;;;;;4.25;3.13;;;23.60;99.90;;;;;;5078728;28;20354;-61
2022/07/22 10:24:23;;;;;;;5.00;3.38;;;23.70;99.90;;;;;;5079165;28;20319;-61
2022/07/22 10:27:00;;;;;;;5.65;3.35;;;23.50;99.90;;;;;;5078633;28;20086;-60
2022/07/22 10:29:47;;;;;;;10.18;3.20;;;23.70;99.90;;;;;;5079289;28;20043;-61
2022/07/22 10:32:15;;;;;;;5.60;3.00;;;23.50;99.90;;;;;;5079273;28;20078;-60
2022/07/22 10:34:54;;;;;;;6.97;3.30;;;23.60;99.90;;;;;;5079235;28;20039;-60
2022/07/22 10:37:40;;;;;;;4.53;3.45;;;24.10;99.90;;;;;;5078469;28;20036;-60
2022/07/22 10:40:11;;;;;;;5.50;3.58;;;24.70;99.90;;;;;;5079041;28;20400;-60
2022/07/22 10:43:08;;;;;;;4.35;3.53;;;24.90;99.90;;;;;;5078340;28;20067;-60
2022/07/22 10:45:33;;;;;;;3.60;3.20;;;24.60;99.90;;;;;;5079195;28;20439;-61
2022/07/22 10:48:03;;;;;;;4.90;3.40;;;24.30;99.90;;;;;;5078988;28;20055;-61
2022/07/22 10:50:37;;;;;;;4.05;3.60;;;24.60;99.90;;;;;;5078824;28;20041;-60
2022/07/22 10:53:06;;;;;;;5.50;3.35;;;24.80;99.90;;;;;;5079896;28;20280;-60
2022/07/22 10:55:33;;;;;;;8.15;3.20;;;24.60;99.90;;;;;;5078007;28;20074;-61
2022/07/22 10:58:00;;;;;;;5.93;3.13;;;24.80;99.90;;;;;;5078834;28;20042;-59
2022/07/22 11:00:26;;;;;;;6.50;2.97;;;24.90;99.90;;;;;;5078955;28;20047;-61
2022/07/22 11:02:52;;;;;;;5.30;3.40;;;25.40;99.90;;;;;;5078737;28;20025;-60
2022/07/22 11:05:30;;;;;;;6.85;3.35;;;25.30;99.90;;;;;;5078563;28;20028;-60
2022/07/22 11:07:55;;;;;;;5.50;3.55;;;25.60;99.90;;;;;;5078656;28;20032;-60
2022/07/22 11:10:22;;;;;;;4.70;3.00;;;25.60;99.90;;;;;;5078528;28;20066;-61
2022/07/22 11:12:49;;;;;;;6.60;3.28;;;25.80;99.90;;;;;;5077475;28;20097;-61
2022/07/22 11:15:16;;;;;;;5.65;2.70;;;25.70;99.90;;;;;;5078605;28;20033;-60
2022/07/22 11:17:41;;;;;;;5.57;2.92;;;26.30;99.90;;;;;;5078449;28;20062;-60
2022/07/22 11:20:13;;;;;;;4.70;2.78;;;27.10;99.90;;;;;;5078298;28;20425;-61
2022/07/22 11:22:40;;;;;;;8.52;3.25;;;28.60;99.90;;;;;;5077531;28;20032;-61
2022/07/22 11:25:08;;;;;;;5.82;3.47;;;28.70;99.90;;;;;;5078146;28;20047;-60
2022/07/22 11:27:34;;;;;;;5.22;2.85;;;28.30;99.90;;;;;;5078144;28;20033;-60
2022/07/22 11:30:00;;;;;;;6.38;3.00;;;28.60;99.90;;;;;;5077977;28;20346;-61
2022/07/22 11:32:30;;;;;;;6.50;3.03;;;28.30;99.90;;;;;;5078031;28;20282;-60
2022/07/22 11:34:57;;;;;;;4.82;2.97;;;27.80;99.90;;;;;;5078271;28;20295;-61
2022/07/22 11:37:24;;;;;;;5.88;3.22;;;28.00;99.90;;;;;;5077995;28;20037;-60
2022/07/22 11:39:51;;;;;;;4.82;2.78;;;28.20;99.90;;;;;;5078088;28;20025;-61
2022/07/22 11:42:17;;;;;;;7.63;3.22;;;29.00;99.90;;;;;;5077696;28;20345;-61
2022/07/22 11:44:44;;;;;;;5.63;3.05;;;28.80;99.90;;;;;;5077777;28;20058;-61
2022/07/22 11:47:11;;;;;;;5.70;2.88;;;28.70;99.90;;;;;;5077765;28;20021;-61
2022/07/22 11:49:38;;;;;;;4.95;3.20;;;28.00;99.90;;;;;;5077579;28;20020;-60
2022/07/22 11:52:11;;;;;;;5.63;4.25;;;28.20;99.90;;;;;;5077648;28;20089;-60
2022/07/22 11:54:39;;;;;;;4.63;2.75;;;27.80;99.90;;;;;;5077556;28;20048;-59
2022/07/22 11:57:06;;;;;;;5.90;3.05;;;28.10;99.90;;;;;;5077298;28;20036;-60
2022/07/22 11:59:34;;;;;;;4.72;2.80;;;27.50;99.90;;;;;;5077465;28;20020;-60
2022/07/22 12:02:00;;;;;;;5.25;3.40;;;28.40;99.90;;;;;;5077331;28;20055;-60
2022/07/22 12:04:28;;;;;;;7.35;2.92;;;28.60;99.90;;;;;;5077252;28;20033;-59
2022/07/22 12:06:54;;;;;;;5.10;2.90;;;28.60;99.90;;;;;;5076713;28;20059;-59
2022/07/22 12:09:23;;;;;;;6.22;3.30;;;28.80;99.90;;;;;;5077196;28;20025;-59
2022/07/22 12:11:54;;;;;;;7.20;3.30;;;29.00;99.90;;;;;;5076472;28;20029;-59
2022/07/22 12:14:22;;;;;;;4.68;2.85;;;28.90;99.90;;;;;;5077375;28;20044;-59
2022/07/22 12:17:10;;;;;;;4.22;2.60;;;29.00;99.90;;;;;;5077196;28;20024;-60
2022/07/22 12:19:37;;;;;;;5.97;3.00;;;29.30;99.90;;;;;;5077158;28;20039;-60
2022/07/22 12:22:07;;;;;;;6.55;2.97;;;29.20;99.90;;;;;;5077326;28;20053;-60
2022/07/22 12:24:57;;;;;;;5.40;3.15;;;29.20;99.90;;;;;;5076679;28;20043;-60
2022/07/22 12:27:23;;;;;;;5.22;2.85;;;28.70;99.90;;;;;;5077390;28;20044;-60
2022/07/22 12:29:49;;;;;;;6.75;3.35;;;28.10;99.90;;;;;;5076954;28;20296;-59
2022/07/22 12:32:23;;;;;;;6.00;3.47;;;28.00;99.90;;;;;;5077343;28;20391;-60
2022/07/22 12:34:55;;;;;;;4.78;3.00;;;28.00;99.90;;;;;;5077179;28;20028;-61
2022/07/22 12:37:28;;;;;;;;;;;28.50;99.90;;;;;;5077695;28;20395;-60
2022/07/22 12:40:05;;;;;;;4.93;2.85;;;28.30;99.90;;;;;;5077220;28;20338;-60
2022/07/22 12:42:43;;;;;;;5.32;3.20;;;28.40;99.90;;;;;;5076922;28;20043;-59
2022/07/22 12:45:15;;;;;;;3.92;3.08;;;28.10;99.90;;;;;;5076162;28;20039;-59
2022/07/22 12:47:55;;;;;;;;;;;27.80;99.90;;;;;;5076697;28;20029;-59
2022/07/22 12:50:30;;;;;;;5.13;3.75;;;27.50;99.90;;;;;;5076782;28;19912;-58
2022/07/22 12:52:58;;;;;;;3.92;3.53;;;27.70;99.90;;;;;;5077442;28;20284;-59
2022/07/22 12:55:25;;;;;;;5.03;3.30;;;27.70;99.90;;;;;;5077188;28;20033;-60
2022/07/22 12:57:51;;;;;;;4.82;3.47;;;27.00;99.90;;;;;;5076643;28;20412;-60